createdAt,value
2023-03-07T00:02:21.568Z,90.84
2023-03-07T00:07:16.261Z,89.90
2023-03-07T00:09:43.663Z,90.20
2023-03-07T00:12:11.257Z,91.26
2023-03-07T00:14:40.107Z,92.05
2023-03-07T00:17:07.438Z,92.37
2023-03-07T00:19:34.844Z,92.77
2023-03-07T00:22:02.175Z,93.32
2023-03-07T00:24:29.594Z,93.56
2023-03-07T00:26:56.922Z,92.91
2023-03-07T00:29:24.400Z,93.31
2023-03-07T00:31:51.781Z,93.48
2023-03-07T00:34:19.366Z,93.42
2023-03-07T00:36:46.818Z,93.16
2023-03-07T00:39:14.537Z,92.54
2023-03-07T00:41:41.923Z,93.04
2023-03-07T00:44:09.414Z,92.16
2023-03-07T00:46:36.722Z,92.04
2023-03-07T00:49:04.263Z,92.82
2023-03-07T00:51:31.721Z,92.96
2023-03-07T00:53:59.132Z,92.90
2023-03-07T00:56:27.008Z,93.09
2023-03-07T00:58:54.605Z,92.90
2023-03-07T01:01:24.216Z,93.24
2023-03-07T01:03:53.842Z,93.41
2023-03-07T01:06:30.053Z,93.83
2023-03-07T01:09:07.394Z,94.87
2023-03-07T01:11:53.683Z,94.79
2023-03-07T01:14:21.262Z,94.36
2023-03-07T01:16:51.304Z,94.38
2023-03-07T01:19:19.122Z,94.85
2023-03-07T01:21:46.669Z,94.86
2023-03-07T01:24:16.133Z,95.81
2023-03-07T01:26:43.852Z,95.92
2023-03-07T01:29:11.929Z,96.09
2023-03-07T01:31:39.547Z,97.71
2023-03-07T01:34:07.227Z,98.32
2023-03-07T01:36:36.957Z,98.84
2023-03-07T01:39:14.113Z,99.63
2023-03-07T01:41:55.553Z,98.97
2023-03-07T01:44:27.006Z,100.00
2023-03-07T01:47:00.001Z,100.00
2023-03-07T01:49:54.816Z,99.28
2023-03-07T01:52:28.065Z,98.66
2023-03-07T01:55:03.288Z,99.10
2023-03-07T01:57:37.063Z,99.30
2023-03-07T02:00:10.088Z,98.86
2023-03-07T02:02:49.683Z,97.79
2023-03-07T02:05:33.075Z,98.68
2023-03-07T02:08:03.006Z,98.94
2023-03-07T02:10:33.960Z,98.79
2023-03-07T02:13:01.503Z,98.71
2023-03-07T02:15:28.896Z,98.32
2023-03-07T02:17:58.792Z,98.02
2023-03-07T02:20:26.150Z,97.40
2023-03-07T02:22:54.741Z,98.22
2023-03-07T02:25:40.850Z,98.67
2023-03-07T02:28:13.134Z,99.20
2023-03-07T02:30:53.617Z,99.45
2023-03-07T02:33:24.957Z,99.88
2023-03-07T02:36:08.463Z,100.00
2023-03-07T02:38:43.053Z,100.00
2023-03-07T02:41:13.164Z,100.00
2023-03-07T02:43:40.537Z,99.50
2023-03-07T02:46:09.390Z,99.88
2023-03-07T02:48:36.685Z,99.45
2023-03-07T02:51:04.253Z,98.85
2023-03-07T02:53:32.165Z,98.83
2023-03-07T02:55:59.521Z,97.99
2023-03-07T02:58:26.829Z,97.72
2023-03-07T03:00:54.202Z,98.18
2023-03-07T03:03:21.518Z,99.26
2023-03-07T03:05:49.072Z,98.98
2023-03-07T03:08:16.488Z,99.14
2023-03-07T03:10:43.812Z,99.93
2023-03-07T03:13:11.917Z,100.00
2023-03-07T03:15:41.347Z,99.48
2023-03-07T03:18:08.666Z,99.46
2023-03-07T03:20:42.786Z,98.72
2023-03-07T03:23:10.137Z,99.38
2023-03-07T03:25:40.143Z,99.63
2023-03-07T03:28:08.571Z,99.66
2023-03-07T03:30:36.472Z,100.00
2023-03-07T03:33:04.929Z,100.00
2023-03-07T03:35:34.998Z,100.00
2023-03-07T03:38:02.820Z,100.00
2023-03-07T03:40:31.190Z,100.00
2023-03-07T03:42:58.677Z,100.00
2023-03-07T03:45:26.507Z,100.00
2023-03-07T03:47:54.078Z,100.00
2023-03-07T03:50:23.739Z,100.00
2023-03-07T03:52:51.248Z,100.00
2023-03-07T03:55:18.603Z,100.00
2023-03-07T03:57:45.975Z,100.00
2023-03-07T04:00:15.372Z,100.00
2023-03-07T04:02:43.256Z,99.61
2023-03-07T04:05:14.340Z,100.00
2023-03-07T04:07:41.700Z,100.00
2023-03-07T04:10:09.692Z,100.00
2023-03-07T04:12:37.087Z,100.00
2023-03-07T04:15:07.553Z,100.00
2023-03-07T04:17:35.869Z,100.00
2023-03-07T04:20:04.863Z,100.00
2023-03-07T04:22:32.940Z,100.00
2023-03-07T04:25:03.116Z,100.00
2023-03-07T04:27:30.713Z,100.00
2023-03-07T04:29:58.278Z,100.00
2023-03-07T04:32:26.395Z,100.00
2023-03-07T04:34:53.761Z,100.00
2023-03-07T04:37:21.094Z,100.00
2023-03-07T04:39:48.455Z,100.00
2023-03-07T04:42:15.755Z,100.00
2023-03-07T04:44:43.098Z,100.00
2023-03-07T04:47:10.481Z,100.00
2023-03-07T04:49:38.880Z,100.00
2023-03-07T04:52:07.425Z,100.00
2023-03-07T04:54:34.915Z,100.00
2023-03-07T04:57:03.972Z,100.00
2023-03-07T04:59:31.512Z,100.00
2023-03-07T05:01:58.852Z,100.00
2023-03-07T05:04:26.269Z,100.00
2023-03-07T05:06:53.821Z,100.00
2023-03-07T05:09:21.231Z,100.00
2023-03-07T05:11:48.599Z,100.00
2023-03-07T05:14:16.155Z,100.00
2023-03-07T05:16:43.553Z,100.00
2023-03-07T05:19:11.786Z,100.00
2023-03-07T05:21:40.878Z,100.00
2023-03-07T05:24:08.928Z,100.00
2023-03-07T05:26:39.290Z,100.00
2023-03-07T05:29:06.635Z,100.00
2023-03-07T05:31:34.066Z,100.00
2023-03-07T05:34:01.771Z,100.00
2023-03-07T05:36:29.158Z,100.00
2023-03-07T05:38:57.103Z,100.00
2023-03-07T05:41:25.077Z,100.00
2023-03-07T05:43:54.930Z,100.00
2023-03-07T05:46:23.028Z,100.00
2023-03-07T05:48:50.422Z,100.00
2023-03-07T05:51:17.740Z,100.00
2023-03-07T05:53:46.549Z,100.00
2023-03-07T05:56:14.773Z,100.00
2023-03-07T05:58:42.651Z,100.00
2023-03-07T06:01:10.424Z,100.00
2023-03-07T06:03:37.863Z,100.00
2023-03-07T06:06:05.498Z,100.00
2023-03-07T06:08:32.977Z,100.00
2023-03-07T06:11:02.049Z,100.00
2023-03-07T06:13:31.093Z,100.00
2023-03-07T06:15:58.490Z,100.00
2023-03-07T06:18:26.327Z,100.00
2023-03-07T06:21:05.320Z,100.00
2023-03-07T06:23:37.262Z,100.00
2023-03-07T06:26:10.443Z,100.00
2023-03-07T06:28:39.790Z,100.00
2023-03-07T06:31:09.719Z,100.00
2023-03-07T06:33:37.345Z,100.00
2023-03-07T06:36:10.579Z,100.00
2023-03-07T06:38:40.067Z,100.00
2023-03-07T06:41:11.084Z,100.00
2023-03-07T06:43:38.971Z,100.00
2023-03-07T06:46:07.513Z,100.00
2023-03-07T06:48:38.817Z,100.00
2023-03-07T06:51:10.154Z,96.38
2023-03-07T06:53:42.806Z,91.96
2023-03-07T06:56:10.371Z,90.72
2023-03-07T06:58:39.182Z,89.33
2023-03-07T07:01:10.005Z,86.93
2023-03-07T07:03:37.332Z,82.86
2023-03-07T07:06:04.830Z,81.84
2023-03-07T07:08:32.188Z,82.86
2023-03-07T07:10:59.770Z,83.51
2023-03-07T07:13:27.996Z,84.51
2023-03-07T07:15:55.396Z,85.65
2023-03-07T07:18:24.757Z,87.18
2023-03-07T07:20:55.585Z,85.02
2023-03-07T07:23:23.937Z,80.49
2023-03-07T07:25:54.651Z,79.29
2023-03-07T07:28:22.290Z,78.46
2023-03-07T07:30:49.712Z,76.04
2023-03-07T07:33:17.201Z,75.61
2023-03-07T07:35:50.884Z,76.56
2023-03-07T07:38:18.888Z,73.07
2023-03-07T07:40:46.238Z,72.34
2023-03-07T07:43:16.792Z,70.21
2023-03-07T07:45:55.089Z,66.88
2023-03-07T07:48:22.787Z,65.16
2023-03-07T07:50:50.120Z,65.87
2023-03-07T07:53:17.938Z,61.87
2023-03-07T07:55:46.220Z,60.62
2023-03-07T07:58:15.989Z,58.80
2023-03-07T08:00:43.530Z,57.70
2023-03-07T08:03:10.921Z,55.59
2023-03-07T08:05:38.338Z,53.04
2023-03-07T08:08:05.842Z,51.49
2023-03-07T08:10:33.276Z,51.42
2023-03-07T08:13:00.711Z,51.89
2023-03-07T08:15:30.064Z,52.37
2023-03-07T08:17:58.567Z,54.32
2023-03-07T08:20:25.890Z,56.29
2023-03-07T08:22:53.151Z,56.94
2023-03-07T08:25:23.745Z,56.00
2023-03-07T08:28:09.759Z,56.21
2023-03-07T08:30:37.667Z,54.86
2023-03-07T08:33:05.080Z,54.38
2023-03-07T08:35:32.612Z,55.04
2023-03-07T08:38:00.616Z,52.97
2023-03-07T08:40:29.957Z,54.28
2023-03-07T08:42:59.248Z,53.23
2023-03-07T08:45:26.937Z,54.90
2023-03-07T08:47:56.061Z,55.55
2023-03-07T08:50:25.970Z,57.72
2023-03-07T08:52:53.912Z,57.66
2023-03-07T08:55:21.309Z,57.40
2023-03-07T08:57:48.786Z,53.61
2023-03-07T09:00:17.830Z,52.36
2023-03-07T09:02:46.333Z,52.33
2023-03-07T09:05:13.671Z,50.96
2023-03-07T09:07:43.505Z,52.13
2023-03-07T09:10:11.965Z,51.17
2023-03-07T09:12:39.284Z,53.15
2023-03-07T09:15:07.088Z,52.72
2023-03-07T09:17:35.384Z,51.10
2023-03-07T09:20:03.451Z,50.34
2023-03-07T09:22:30.764Z,50.60
2023-03-07T09:24:58.066Z,49.81
2023-03-07T09:27:25.452Z,48.34
2023-03-07T09:29:52.792Z,48.88
2023-03-07T09:32:20.245Z,47.82
2023-03-07T09:34:47.591Z,49.94
2023-03-07T09:37:15.106Z,51.10
2023-03-07T09:39:42.397Z,52.51
2023-03-07T09:42:35.520Z,49.89
2023-03-07T09:45:31.455Z,53.46
2023-03-07T09:48:35.419Z,53.17
2023-03-07T09:51:15.156Z,48.75
2023-03-07T09:54:06.055Z,45.88
2023-03-07T09:56:40.881Z,50.10
2023-03-07T09:59:24.104Z,50.65
2023-03-07T10:02:15.680Z,48.51
2023-03-07T10:04:54.593Z,43.74
2023-03-07T10:07:28.067Z,43.08
2023-03-07T10:09:59.749Z,44.81
2023-03-07T10:12:45.199Z,45.52
2023-03-07T10:15:34.035Z,45.43
2023-03-07T10:18:35.120Z,47.02
2023-03-07T10:21:53.279Z,47.83
2023-03-07T10:24:45.436Z,47.75
2023-03-07T10:27:13.222Z,47.47
2023-03-07T10:29:49.324Z,48.26
2023-03-07T10:32:52.920Z,47.99
2023-03-07T10:35:22.720Z,47.48
2023-03-07T10:37:58.653Z,46.82
2023-03-07T10:40:42.796Z,46.12
2023-03-07T10:43:27.349Z,45.80
2023-03-07T10:46:26.259Z,44.76
2023-03-07T10:49:00.359Z,46.55
2023-03-07T10:51:53.331Z,45.33
2023-03-07T10:54:24.589Z,45.08
2023-03-07T10:57:05.645Z,44.70
2023-03-07T10:59:33.560Z,42.20
2023-03-07T11:02:02.781Z,42.33
2023-03-07T11:04:44.528Z,42.17
2023-03-07T11:07:34.469Z,45.36
2023-03-07T11:10:35.169Z,46.40
2023-03-07T11:13:19.126Z,45.89
2023-03-07T11:15:46.931Z,45.96
2023-03-07T11:18:30.290Z,44.84
2023-03-07T11:20:58.665Z,46.05
2023-03-07T11:23:30.834Z,47.67
2023-03-07T11:26:22.667Z,44.25
2023-03-07T11:29:12.150Z,45.31
2023-03-07T11:32:04.093Z,45.66
2023-03-07T11:34:51.193Z,44.16
2023-03-07T11:37:33.088Z,43.51
2023-03-07T11:40:31.679Z,41.92
2023-03-07T11:43:04.762Z,43.44
2023-03-07T11:45:53.101Z,42.79
2023-03-07T11:48:31.981Z,42.61
2023-03-07T11:50:59.876Z,42.69
2023-03-07T11:53:41.298Z,45.39
2023-03-07T11:56:33.836Z,47.40
2023-03-07T11:59:13.476Z,47.46
2023-03-07T12:01:52.649Z,48.03
2023-03-07T12:04:26.120Z,47.93
2023-03-07T12:07:12.092Z,48.90
2023-03-07T12:09:53.148Z,49.28
2023-03-07T12:12:23.373Z,47.50
2023-03-07T12:14:53.523Z,45.15
2023-03-07T12:17:47.685Z,44.62
2023-03-07T12:20:26.340Z,44.99
2023-03-07T12:23:05.786Z,43.84
2023-03-07T12:25:41.959Z,44.06
2023-03-07T12:28:21.806Z,44.62
2023-03-07T12:31:20.245Z,46.64
2023-03-07T12:33:48.078Z,47.82
2023-03-07T12:36:22.676Z,48.22
2023-03-07T12:38:56.896Z,48.58
2023-03-07T12:41:47.979Z,47.02
2023-03-07T12:44:32.939Z,46.13
2023-03-07T12:47:11.226Z,47.14
2023-03-07T12:49:55.585Z,49.26
2023-03-07T12:52:40.010Z,49.15
2023-03-07T12:55:31.475Z,49.24
2023-03-07T12:58:13.578Z,49.29
2023-03-07T13:00:47.236Z,48.85
2023-03-07T13:03:58.284Z,49.14
2023-03-07T13:06:26.627Z,49.37
2023-03-07T13:08:57.653Z,49.57
2023-03-07T13:11:27.640Z,49.40
2023-03-07T13:13:58.371Z,47.80
2023-03-07T13:16:36.123Z,48.54
2023-03-07T13:19:42.843Z,47.74
2023-03-07T13:22:16.395Z,48.77
2023-03-07T13:25:22.400Z,49.45
2023-03-07T13:27:52.028Z,49.12
2023-03-07T13:30:21.798Z,49.44
2023-03-07T13:32:52.180Z,50.00
2023-03-07T13:35:29.048Z,49.52
2023-03-07T13:38:04.486Z,49.40
2023-03-07T13:40:47.066Z,49.18
2023-03-07T13:43:25.466Z,48.77
2023-03-07T13:46:00.342Z,47.40
2023-03-07T13:48:27.997Z,47.46
2023-03-07T13:51:00.756Z,48.32
2023-03-07T13:53:28.039Z,49.46
2023-03-07T13:56:03.463Z,48.98
2023-03-07T13:58:34.733Z,49.25
2023-03-07T14:01:14.792Z,48.45
2023-03-07T14:03:53.041Z,47.85
2023-03-07T14:06:33.692Z,48.07
2023-03-07T14:09:05.191Z,47.21
2023-03-07T14:11:44.804Z,47.58
2023-03-07T14:14:38.154Z,46.63
2023-03-07T14:17:27.535Z,46.50
2023-03-07T14:20:17.604Z,47.06
2023-03-07T14:23:03.375Z,47.94
2023-03-07T14:25:36.526Z,47.58
2023-03-07T14:28:20.109Z,47.70
2023-03-07T14:30:56.841Z,46.74
2023-03-07T14:33:38.270Z,47.70
2023-03-07T14:36:25.693Z,48.62
2023-03-07T14:39:02.165Z,49.32
2023-03-07T14:41:46.015Z,49.18
2023-03-07T14:44:34.586Z,49.32
2023-03-07T14:47:26.693Z,50.58
2023-03-07T14:50:17.682Z,50.01
2023-03-07T14:52:45.765Z,50.28
2023-03-07T14:55:19.876Z,50.62
2023-03-07T14:57:52.898Z,49.79
2023-03-07T15:00:20.488Z,48.80
2023-03-07T15:02:55.461Z,50.48
2023-03-07T15:05:32.677Z,49.55
2023-03-07T15:08:00.108Z,50.77
2023-03-07T15:10:30.370Z,50.47
2023-03-07T15:12:58.398Z,52.13
2023-03-07T15:15:45.362Z,51.65
2023-03-07T15:18:21.356Z,52.15
2023-03-07T15:20:50.977Z,52.92
2023-03-07T15:23:22.488Z,52.11
2023-03-07T15:25:53.833Z,52.67
2023-03-07T15:28:29.786Z,52.87
2023-03-07T15:30:59.572Z,52.76
2023-03-07T15:33:30.746Z,52.59
2023-03-07T15:36:13.168Z,53.23
2023-03-07T15:38:47.980Z,53.40
2023-03-07T15:41:25.202Z,53.40
2023-03-07T15:44:19.652Z,53.21
2023-03-07T15:46:55.600Z,53.73
2023-03-07T15:49:27.773Z,54.47
2023-03-07T15:51:58.377Z,54.98
2023-03-07T15:54:33.390Z,55.86
2023-03-07T15:57:04.991Z,55.14
2023-03-07T15:59:37.188Z,55.32
2023-03-07T16:02:33.598Z,55.83
2023-03-07T16:05:19.317Z,55.65
2023-03-07T16:07:47.686Z,55.95
2023-03-07T16:10:15.370Z,56.05
2023-03-07T16:12:46.432Z,56.51
2023-03-07T16:15:15.952Z,57.21
2023-03-07T16:17:44.067Z,57.26
2023-03-07T16:20:16.632Z,57.58
2023-03-07T16:22:44.594Z,58.00
2023-03-07T16:25:15.787Z,57.44
2023-03-07T16:27:53.249Z,56.71
2023-03-07T16:30:26.495Z,53.84
2023-03-07T16:32:54.413Z,54.57
2023-03-07T16:35:24.496Z,55.15
2023-03-07T16:37:53.201Z,55.49
2023-03-07T16:40:21.440Z,55.42
2023-03-07T16:42:50.558Z,54.71
2023-03-07T16:45:20.131Z,55.36
2023-03-07T16:47:50.370Z,52.23
2023-03-07T16:50:20.799Z,50.18
2023-03-07T16:52:51.633Z,50.31
2023-03-07T16:55:19.576Z,50.54
2023-03-07T16:57:50.684Z,50.54
2023-03-07T17:00:21.162Z,49.88
2023-03-07T17:02:50.405Z,50.23
2023-03-07T17:05:23.485Z,50.56
2023-03-07T17:07:54.853Z,50.37
2023-03-07T17:10:23.714Z,50.31
2023-03-07T17:12:51.034Z,49.69
2023-03-07T17:15:24.384Z,49.97
2023-03-07T17:17:51.961Z,49.74
2023-03-07T17:20:25.636Z,49.82
2023-03-07T17:22:53.915Z,49.79
2023-03-07T17:25:22.547Z,50.35
2023-03-07T17:27:57.549Z,49.99
2023-03-07T17:30:28.224Z,50.79
2023-03-07T17:32:55.686Z,50.63
2023-03-07T17:35:23.609Z,51.11
2023-03-07T17:37:53.003Z,50.95
2023-03-07T17:40:21.734Z,50.69
2023-03-07T17:42:52.409Z,50.79
2023-03-07T17:45:19.964Z,51.36
2023-03-07T17:47:51.974Z,51.45
2023-03-07T17:50:23.589Z,51.68
2023-03-07T17:52:53.948Z,51.62
2023-03-07T17:55:24.397Z,52.27
2023-03-07T17:57:52.302Z,52.87
2023-03-07T18:00:22.812Z,52.98
2023-03-07T18:02:50.495Z,53.72
2023-03-07T18:05:21.412Z,53.86
2023-03-07T18:07:51.422Z,54.49
2023-03-07T18:10:19.078Z,54.73
2023-03-07T18:12:46.769Z,54.73
2023-03-07T18:15:16.554Z,54.96
2023-03-07T18:17:49.161Z,55.13
2023-03-07T18:20:21.483Z,54.94
2023-03-07T18:22:49.235Z,55.47
2023-03-07T18:25:18.025Z,55.35
2023-03-07T18:27:45.927Z,55.66
2023-03-07T18:30:14.274Z,55.30
2023-03-07T18:32:42.179Z,54.84
2023-03-07T18:35:09.812Z,55.71
2023-03-07T18:37:37.148Z,55.88
2023-03-07T18:40:05.091Z,55.83
2023-03-07T18:42:33.334Z,57.13
2023-03-07T18:45:00.665Z,56.70
2023-03-07T18:47:28.081Z,57.14
2023-03-07T18:50:00.476Z,56.86
2023-03-07T18:52:27.757Z,57.99
2023-03-07T18:54:55.128Z,58.32
2023-03-07T18:57:22.384Z,57.71
2023-03-07T18:59:51.162Z,57.26
2023-03-07T19:02:18.944Z,57.59
2023-03-07T19:04:47.795Z,57.21
2023-03-07T19:07:15.060Z,57.24
2023-03-07T19:09:44.600Z,57.41
2023-03-07T19:12:13.272Z,58.34
2023-03-07T19:14:40.724Z,57.56
2023-03-07T19:17:08.024Z,57.27
2023-03-07T19:19:36.082Z,58.58
2023-03-07T19:22:04.196Z,58.98
2023-03-07T19:24:32.526Z,58.78
2023-03-07T19:27:00.044Z,59.76
2023-03-07T19:29:27.426Z,60.16
2023-03-07T19:31:57.788Z,60.85
2023-03-07T19:34:25.285Z,60.45
2023-03-07T19:36:52.649Z,61.08
2023-03-07T19:39:20.637Z,60.89
2023-03-07T19:41:48.093Z,61.38
2023-03-07T19:44:16.098Z,61.77
2023-03-07T19:46:46.335Z,61.43
2023-03-07T19:49:14.935Z,62.74
2023-03-07T19:51:42.582Z,62.27
2023-03-07T19:54:13.196Z,62.98
2023-03-07T19:56:42.495Z,63.16
2023-03-07T19:59:11.474Z,63.58
2023-03-07T20:01:38.920Z,64.09
2023-03-07T20:04:07.763Z,63.79
2023-03-07T20:06:35.449Z,64.19
2023-03-07T20:09:03.148Z,64.18
2023-03-07T20:11:35.109Z,64.46
2023-03-07T20:14:04.804Z,65.42
2023-03-07T20:16:35.291Z,65.40
2023-03-07T20:19:05.638Z,65.91
2023-03-07T20:21:35.737Z,65.62
2023-03-07T20:24:04.651Z,66.17
2023-03-07T20:26:35.372Z,66.67
2023-03-07T20:29:05.460Z,66.87
2023-03-07T20:31:36.478Z,67.30
2023-03-07T20:34:03.891Z,67.38
2023-03-07T20:36:33.820Z,67.60
2023-03-07T20:39:05.448Z,68.37
2023-03-07T20:41:32.884Z,68.28
2023-03-07T20:44:03.635Z,68.62
2023-03-07T20:46:35.429Z,68.75
2023-03-07T20:49:03.801Z,68.85
2023-03-07T20:51:37.788Z,68.90
2023-03-07T20:54:07.980Z,69.96
2023-03-07T20:56:37.112Z,71.23
2023-03-07T20:59:05.258Z,70.94
2023-03-07T21:01:34.443Z,70.60
2023-03-07T21:04:07.073Z,70.44
2023-03-07T21:06:35.832Z,70.81
2023-03-07T21:09:08.361Z,70.48
2023-03-07T21:11:37.509Z,70.54
2023-03-07T21:14:04.931Z,71.14
2023-03-07T21:16:32.403Z,70.75
2023-03-07T21:19:01.680Z,70.82
2023-03-07T21:21:31.157Z,71.51
2023-03-07T21:23:58.611Z,71.88
2023-03-07T21:26:29.752Z,73.16
2023-03-07T21:28:58.130Z,74.38
2023-03-07T21:31:30.787Z,74.33
2023-03-07T21:34:01.459Z,73.28
2023-03-07T21:36:31.752Z,73.12
2023-03-07T21:39:00.161Z,72.74
2023-03-07T21:41:27.799Z,74.11
2023-03-07T21:43:56.177Z,74.53
2023-03-07T21:46:24.393Z,73.52
2023-03-07T21:48:52.140Z,74.27
2023-03-07T21:51:19.865Z,74.09
2023-03-07T21:53:47.291Z,73.59
2023-03-07T21:56:23.915Z,74.49
2023-03-07T21:58:52.101Z,73.53
2023-03-07T22:01:22.170Z,74.09
2023-03-07T22:03:52.308Z,73.69
2023-03-07T22:06:19.872Z,73.52
2023-03-07T22:08:47.154Z,72.95
2023-03-07T22:11:14.506Z,73.56
2023-03-07T22:13:42.153Z,73.50
2023-03-07T22:16:15.155Z,74.88
2023-03-07T22:18:42.568Z,74.12
2023-03-07T22:21:17.207Z,75.88
2023-03-07T22:23:44.775Z,77.15
2023-03-07T22:26:12.871Z,77.05
2023-03-07T22:28:41.048Z,75.05
2023-03-07T22:31:11.703Z,74.47
2023-03-07T22:33:40.581Z,75.41
2023-03-07T22:36:11.786Z,73.85
2023-03-07T22:38:39.394Z,74.35
2023-03-07T22:41:11.012Z,75.24
2023-03-07T22:43:39.212Z,75.57
2023-03-07T22:46:07.455Z,74.57
2023-03-07T22:48:35.203Z,75.43
2023-03-07T22:51:02.629Z,73.67
2023-03-07T22:53:31.235Z,75.35
2023-03-07T22:55:59.604Z,75.55
2023-03-07T22:58:30.156Z,74.20
2023-03-07T23:00:57.494Z,74.21
2023-03-07T23:03:24.968Z,74.23
2023-03-07T23:05:52.329Z,74.26
2023-03-07T23:08:20.517Z,73.83
2023-03-07T23:10:47.840Z,74.45
2023-03-07T23:13:18.197Z,74.35
2023-03-07T23:15:45.622Z,75.80
2023-03-07T23:18:13.079Z,75.65
2023-03-07T23:20:40.346Z,76.69
2023-03-07T23:23:07.699Z,76.41
2023-03-07T23:25:41.245Z,76.30
2023-03-07T23:28:10.125Z,75.98
2023-03-07T23:30:42.131Z,75.60
2023-03-07T23:33:09.339Z,75.56
2023-03-07T23:35:36.735Z,76.36
2023-03-07T23:38:04.816Z,77.10
2023-03-07T23:40:32.725Z,77.21
2023-03-07T23:43:00.081Z,77.79
2023-03-07T23:45:28.349Z,77.78
2023-03-07T23:47:55.713Z,78.01
2023-03-07T23:50:23.746Z,77.67
2023-03-07T23:52:51.056Z,79.13
2023-03-07T23:55:18.382Z,79.88
2023-03-07T23:57:46.736Z,80.64
